Time;durP1;ratioP1;P1;durP2;ratioP2;P2;SDS_P1;SDS_P2;PMS_P1;PMS_P2;Temp;Humidity;BMP_temperature;BMP_pressure;BME280_temperature;BME280_humidity;BME280_pressure;Samples;Min_cycle;Max_cycle;Signal;HPM_P1;HPM_P2
2022/09/11 00:01:15;;;;;;;13.60;12.05;;;14.40;99.90;;;;;;5033476;28;20049;-61
2022/09/11 00:03:42;;;;;;;16.40;13.35;;;14.40;99.90;;;;;;5036125;28;20131;-59
2022/09/11 00:06:11;;;;;;;15.43;13.40;;;14.40;99.90;;;;;;5038356;28;20120;-60
2022/09/11 00:08:39;;;;;;;13.32;11.20;;;14.40;99.90;;;;;;5030148;28;20052;-62
2022/09/11 00:11:16;;;;;;;14.40;12.75;;;14.40;99.90;;;;;;5033606;28;21814;-60
2022/09/11 00:13:44;;;;;;;17.65;12.55;;;14.40;99.90;;;;;;5026431;28;20052;-60
2022/09/11 00:16:35;;;;;;;13.88;12.25;;;14.40;99.90;;;;;;5037744;28;20128;-60
2022/09/11 00:19:21;;;;;;;14.80;12.68;;;14.50;99.90;;;;;;5038624;28;20399;-60
2022/09/11 00:21:49;;;;;;;16.30;13.93;;;14.40;99.90;;;;;;5034105;28;20071;-60
2022/09/11 00:24:15;;;;;;;16.48;14.27;;;14.40;99.90;;;;;;5032974;28;20133;-62
2022/09/11 00:26:41;;;;;;;14.68;12.93;;;14.40;99.90;;;;;;5022403;28;20055;-60
2022/09/11 00:29:07;;;;;;;14.02;12.50;;;14.40;99.90;;;;;;5033671;28;20999;-60
2022/09/11 00:31:33;;;;;;;14.00;12.50;;;14.40;99.90;;;;;;5037270;28;20048;-61
2022/09/11 00:33:59;;;;;;;15.07;12.80;;;14.40;99.90;;;;;;5034365;28;20182;-61
2022/09/11 00:36:28;;;;;;;15.77;13.30;;;14.30;99.90;;;;;;5041264;28;20072;-62
2022/09/11 00:38:55;;;;;;;17.63;14.40;;;14.40;99.90;;;;;;5039327;28;20534;-61
2022/09/11 00:41:35;;;;;;;17.77;14.23;;;14.30;99.90;;;;;;5034160;28;20138;-60
2022/09/11 00:44:02;;;;;;;15.73;13.57;;;14.30;99.90;;;;;;5035097;28;20059;-60
2022/09/11 00:46:42;;;;;;;16.05;13.15;;;14.30;99.90;;;;;;5027429;28;20974;-61
2022/09/11 00:49:26;;;;;;;16.50;13.57;;;14.30;99.90;;;;;;5030796;28;20063;-60
2022/09/11 00:51:57;;;;;;;14.43;12.75;;;14.30;99.90;;;;;;5033485;28;20053;-62
2022/09/11 00:54:33;;;;;;;16.95;13.30;;;14.30;99.90;;;;;;5050989;28;20076;-62
2022/09/11 00:57:03;;;;;;;19.02;15.40;;;14.30;99.90;;;;;;5031828;28;21023;-60
2022/09/11 00:59:31;;;;;;;15.73;13.43;;;14.30;99.90;;;;;;5033906;28;20492;-60
2022/09/11 01:01:57;;;;;;;14.48;12.40;;;14.20;99.90;;;;;;5033181;28;20045;-61
2022/09/11 01:04:23;;;;;;;15.25;13.55;;;14.20;99.90;;;;;;5036749;28;20091;-61
2022/09/11 01:06:55;;;;;;;18.60;15.80;;;14.20;99.90;;;;;;5022032;28;20060;-61
2022/09/11 01:09:22;;;;;;;18.30;15.73;;;14.20;99.90;;;;;;5038547;28;20072;-60
2022/09/11 01:12:02;;;;;;;23.90;17.17;;;14.20;99.90;;;;;;5034501;28;20049;-60
2022/09/11 01:14:46;;;;;;;22.30;16.88;;;14.20;99.90;;;;;;5033892;28;20129;-60
2022/09/11 01:17:34;;;;;;;17.08;14.65;;;14.20;99.90;;;;;;5035180;28;20056;-61
2022/09/11 01:20:22;;;;;;;12.88;11.48;;;14.10;99.90;;;;;;5032857;28;20043;-60
2022/09/11 01:23:06;;;;;;;13.63;11.02;;;14.10;99.90;;;;;;5035184;28;20048;-60
2022/09/11 01:26:03;;;;;;;13.32;11.93;;;14.10;99.90;;;;;;5032130;28;20054;-61
2022/09/11 01:28:43;;;;;;;10.80;9.57;;;14.00;99.90;;;;;;5030492;28;20510;-62
2022/09/11 01:31:14;;;;;;;12.98;10.65;;;14.00;99.90;;;;;;5036744;28;20068;-61
2022/09/11 01:34:08;;;;;;;12.82;11.43;;;14.00;99.90;;;;;;5009982;28;20378;-60
2022/09/11 01:36:52;;;;;;;12.90;11.57;;;14.00;99.90;;;;;;5026675;28;20110;-62
2022/09/11 01:39:22;;;;;;;11.00;9.90;;;13.90;99.90;;;;;;5028046;28;20130;-61
2022/09/11 01:42:01;;;;;;;13.75;11.88;;;13.90;99.90;;;;;;5028130;28;20415;-60
2022/09/11 01:44:36;;;;;;;15.68;11.80;;;13.90;99.90;;;;;;5032173;28;20049;-60
2022/09/11 01:47:06;;;;;;;17.98;14.27;;;13.90;99.90;;;;;;5017701;28;20565;-60
2022/09/11 01:50:01;;;;;;;19.98;14.25;;;13.90;99.90;;;;;;5017200;28;20063;-62
2022/09/11 01:52:40;;;;;;;15.88;13.60;;;13.90;99.90;;;;;;5030033;28;20052;-61
2022/09/11 01:55:16;;;;;;;11.55;9.77;;;13.90;99.90;;;;;;5034585;28;20041;-60
2022/09/11 01:58:02;;;;;;;10.20;8.80;;;13.80;99.90;;;;;;5032903;28;20110;-60
2022/09/11 02:00:30;;;;;;;12.70;8.98;;;13.80;99.90;;;;;;5031662;28;20053;-62
2022/09/11 02:03:05;;;;;;;12.57;10.25;;;13.80;99.90;;;;;;5034260;28;20045;-62
2022/09/11 02:05:47;;;;;;;11.43;9.70;;;13.70;99.90;;;;;;5027090;28;20061;-61
2022/09/11 02:08:22;;;;;;;10.68;9.35;;;13.70;99.90;;;;;;5034854;28;20053;-59
2022/09/11 02:11:04;;;;;;;13.70;12.15;;;13.60;99.90;;;;;;5035344;28;20157;-60
2022/09/11 02:13:48;;;;;;;15.03;13.43;;;13.70;99.90;;;;;;5033192;28;20056;-60
2022/09/11 02:16:38;;;;;;;12.82;11.45;;;13.70;99.90;;;;;;5033776;28;20049;-60
2022/09/11 02:19:08;;;;;;;12.82;10.85;;;13.70;99.90;;;;;;5019454;28;20045;-59
2022/09/11 02:21:35;;;;;;;10.05;9.05;;;13.70;99.90;;;;;;5034786;28;20080;-61
2022/09/11 02:24:01;;;;;;;10.98;9.77;;;13.70;99.90;;;;;;5031601;28;20052;-60
2022/09/11 02:26:31;;;;;;;11.27;9.95;;;13.70;99.90;;;;;;5017546;28;20190;-60
2022/09/11 02:28:57;;;;;;;10.98;9.88;;;13.70;99.90;;;;;;5027214;28;20056;-61
2022/09/11 02:31:24;;;;;;;11.23;10.05;;;13.70;99.90;;;;;;5026744;28;20045;-60
2022/09/11 02:33:50;;;;;;;13.40;11.02;;;13.70;99.90;;;;;;5010629;28;20052;-59
2022/09/11 02:36:28;;;;;;;12.70;11.23;;;13.70;99.90;;;;;;5031955;28;20059;-60
2022/09/11 02:39:20;;;;;;;14.32;12.77;;;13.70;99.90;;;;;;5052782;28;20049;-60
2022/09/11 02:42:30;;;;;;;15.43;12.05;;;13.70;99.90;;;;;;5029354;28;20049;-61
2022/09/11 02:45:16;;;;;;;17.48;13.48;;;13.80;99.90;;;;;;4975546;28;20088;-60
2022/09/11 02:47:56;;;;;;;14.23;12.73;;;13.80;99.90;;;;;;4970096;28;20498;-61
2022/09/11 02:50:37;;;;;;;14.30;11.40;;;13.90;99.90;;;;;;5019614;28;20457;-62
2022/09/11 02:53:19;;;;;;;15.65;13.52;;;13.90;99.90;;;;;;5034756;28;20561;-61
2022/09/11 02:56:10;;;;;;;17.50;14.23;;;13.90;99.90;;;;;;5022071;28;20071;-62
2022/09/11 02:58:49;;;;;;;14.90;12.68;;;13.90;99.90;;;;;;5004320;28;20049;-62
2022/09/11 03:01:15;;;;;;;13.13;11.73;;;13.90;99.90;;;;;;5007261;28;20040;-61
2022/09/11 03:03:44;;;;;;;17.55;14.73;;;14.00;99.90;;;;;;5046935;28;20483;-61
2022/09/11 03:06:17;;;;;;;14.93;12.68;;;14.00;99.90;;;;;;5034165;28;20060;-61
2022/09/11 03:08:44;;;;;;;15.13;12.15;;;14.00;99.90;;;;;;5018934;28;20135;-59
2022/09/11 03:11:11;;;;;;;14.82;12.75;;;14.00;99.90;;;;;;5032028;28;20917;-60
2022/09/11 03:13:36;;;;;;;14.70;13.20;;;14.00;99.90;;;;;;5029387;28;20515;-61
2022/09/11 03:16:06;;;;;;;13.00;11.70;;;14.00;99.90;;;;;;5028545;28;20045;-60
2022/09/11 03:18:32;;;;;;;14.70;11.43;;;14.00;99.90;;;;;;5027415;28;20059;-62
2022/09/11 03:20:59;;;;;;;12.43;10.75;;;14.00;99.90;;;;;;5030579;28;20507;-60
2022/09/11 03:23:25;;;;;;;12.90;11.15;;;14.00;99.90;;;;;;5029038;28;20162;-59
2022/09/11 03:25:50;;;;;;;15.48;12.25;;;14.00;99.90;;;;;;5001804;28;20499;-59
2022/09/11 03:28:16;;;;;;;12.68;10.20;;;13.90;99.90;;;;;;5029120;28;20045;-61
2022/09/11 03:30:42;;;;;;;11.52;10.40;;;14.00;99.90;;;;;;5018325;28;20258;-61
2022/09/11 03:33:08;;;;;;;13.48;12.07;;;13.90;99.90;;;;;;4999300;28;20049;-59
2022/09/11 03:35:34;;;;;;;14.02;12.52;;;13.90;99.90;;;;;;5010545;28;20049;-60
2022/09/11 03:38:00;;;;;;;12.00;10.77;;;13.90;99.90;;;;;;5031419;28;20081;-61
2022/09/11 03:40:26;;;;;;;12.90;11.60;;;13.90;99.90;;;;;;5037681;28;20145;-61
2022/09/11 03:42:52;;;;;;;14.80;12.20;;;13.80;99.90;;;;;;5021766;28;20098;-61
2022/09/11 03:45:20;;;;;;;12.02;10.48;;;13.80;99.90;;;;;;5033372;28;20773;-59
2022/09/11 03:47:46;;;;;;;9.85;8.85;;;13.80;99.90;;;;;;5037430;28;20082;-59
2022/09/11 03:50:12;;;;;;;9.50;8.57;;;13.80;99.90;;;;;;5019669;28;20052;-60
2022/09/11 03:52:38;;;;;;;9.55;8.57;;;13.80;99.90;;;;;;5036339;28;20052;-60
2022/09/11 03:55:05;;;;;;;11.10;9.82;;;13.80;99.90;;;;;;5042802;28;20049;-60
2022/09/11 03:57:35;;;;;;;10.02;8.15;;;13.70;99.90;;;;;;4973266;28;20821;-60
2022/09/11 04:00:02;;;;;;;9.73;8.00;;;13.70;99.90;;;;;;5018291;28;20526;-60
2022/09/11 04:02:28;;;;;;;8.30;7.50;;;13.70;99.90;;;;;;5033041;28;20056;-60
2022/09/11 04:04:54;;;;;;;6.88;6.28;;;13.60;99.90;;;;;;5034029;28;20840;-59
2022/09/11 04:07:21;;;;;;;6.95;6.28;;;13.60;99.90;;;;;;5020509;28;20041;-60
2022/09/11 04:09:47;;;;;;;6.55;5.95;;;13.60;99.90;;;;;;5029065;28;20103;-61
2022/09/11 04:12:13;;;;;;;6.93;6.22;;;13.50;99.90;;;;;;5021622;28;20102;-60
2022/09/11 04:14:38;;;;;;;6.55;5.95;;;13.50;99.90;;;;;;5022635;28;20057;-59
2022/09/11 04:17:06;;;;;;;6.60;5.97;;;13.50;99.90;;;;;;5035859;28;20045;-60
2022/09/11 04:19:33;;;;;;;8.25;6.85;;;13.40;99.90;;;;;;5035745;28;20060;-60
2022/09/11 04:21:59;;;;;;;7.93;6.78;;;13.40;99.90;;;;;;5031695;28;20048;-60
2022/09/11 04:24:25;;;;;;;6.40;5.72;;;13.40;99.90;;;;;;5034403;28;20087;-60
2022/09/11 04:26:51;;;;;;;5.60;5.15;;;13.30;99.90;;;;;;5038442;28;20092;-61
2022/09/11 04:29:17;;;;;;;6.15;5.65;;;13.30;99.90;;;;;;5031472;28;20461;-59
2022/09/11 04:31:43;;;;;;;6.93;6.22;;;13.30;99.90;;;;;;5029030;28;20047;-62
2022/09/11 04:34:10;;;;;;;7.63;6.53;;;13.30;99.90;;;;;;5033611;28;20053;-62
2022/09/11 04:36:36;;;;;;;8.15;6.90;;;13.30;99.90;;;;;;5021350;28;20060;-60
2022/09/11 04:39:02;;;;;;;6.68;6.07;;;13.30;99.90;;;;;;5030194;28;20118;-60
2022/09/11 04:41:28;;;;;;;8.73;5.35;;;13.30;99.90;;;;;;5017045;28;20476;-60
2022/09/11 04:43:56;;;;;;;6.32;5.72;;;13.20;99.90;;;;;;5037629;28;20052;-60
2022/09/11 04:46:25;;;;;;;7.10;5.40;;;13.20;99.90;;;;;;5027385;28;20148;-60
2022/09/11 04:48:58;;;;;;;42.60;5.97;;;13.20;99.90;;;;;;5034611;28;20412;-60
2022/09/11 04:51:26;;;;;;;16.05;5.65;;;13.10;99.90;;;;;;5015057;28;20103;-59
2022/09/11 04:53:56;;;;;;;6.13;5.47;;;13.10;99.90;;;;;;5003946;28;20183;-61
2022/09/11 04:56:30;;;;;;;5.60;5.10;;;13.00;99.90;;;;;;5035191;28;20966;-59
2022/09/11 04:59:03;;;;;;;6.07;5.57;;;13.00;99.90;;;;;;5032698;28;20517;-61
2022/09/11 05:01:30;;;;;;;9.05;5.97;;;13.00;99.90;;;;;;5034624;28;20045;-60
2022/09/11 05:03:56;;;;;;;6.70;6.10;;;13.00;99.90;;;;;;5032761;28;20057;-61
2022/09/11 05:06:22;;;;;;;5.90;5.40;;;13.00;99.90;;;;;;5033723;28;20048;-60
2022/09/11 05:08:49;;;;;;;6.65;6.07;;;13.00;99.90;;;;;;5028473;28;20049;-60
2022/09/11 05:11:17;;;;;;;5.70;5.20;;;13.00;99.90;;;;;;5036602;28;20094;-60
2022/09/11 05:13:43;;;;;;;6.25;5.75;;;13.00;99.90;;;;;;5031230;28;21000;-62
2022/09/11 05:16:14;;;;;;;7.55;6.85;;;13.00;99.90;;;;;;5038509;28;20063;-59
2022/09/11 05:18:42;;;;;;;7.53;6.57;;;13.00;99.90;;;;;;5021587;28;20380;-60
2022/09/11 05:21:13;;;;;;;7.63;6.85;;;13.00;99.90;;;;;;5038597;28;20048;-60
2022/09/11 05:23:40;;;;;;;6.80;6.20;;;13.00;99.90;;;;;;5033468;28;20479;-60
2022/09/11 05:26:12;;;;;;;6.53;5.95;;;13.00;99.90;;;;;;5035975;28;20057;-61
2022/09/11 05:28:38;;;;;;;6.03;5.47;;;13.00;99.90;;;;;;5034676;28;20048;-61
2022/09/11 05:31:16;;;;;;;5.68;5.28;;;13.00;99.90;;;;;;5038002;28;20360;-59
2022/09/11 05:33:45;;;;;;;5.88;5.32;;;13.00;99.90;;;;;;5037056;28;20529;-60
2022/09/11 05:36:13;;;;;;;7.20;6.40;;;13.00;99.90;;;;;;5026324;28;20096;-60
2022/09/11 05:38:39;;;;;;;7.45;6.18;;;13.00;99.90;;;;;;5033351;28;20091;-60
2022/09/11 05:41:07;;;;;;;7.68;6.20;;;13.00;99.90;;;;;;5026756;28;20475;-60
2022/09/11 05:43:34;;;;;;;5.82;5.32;;;13.00;99.90;;;;;;5035450;28;20123;-62
2022/09/11 05:46:01;;;;;;;5.10;4.70;;;13.00;99.90;;;;;;5022588;28;20044;-61
2022/09/11 05:48:27;;;;;;;5.75;5.25;;;13.00;99.90;;;;;;5034935;28;20061;-60
2022/09/11 05:50:58;;;;;;;5.65;5.25;;;13.00;99.90;;;;;;5036712;28;20504;-60
2022/09/11 05:53:27;;;;;;;6.78;4.85;;;13.10;99.90;;;;;;5035827;28;20055;-60
2022/09/11 05:55:53;;;;;;;5.95;5.45;;;13.10;99.90;;;;;;5036305;28;20052;-61
2022/09/11 05:58:20;;;;;;;6.13;5.63;;;13.10;99.90;;;;;;5038647;28;20467;-62
2022/09/11 06:00:47;;;;;;;5.55;5.13;;;13.10;99.90;;;;;;5036111;28;20044;-62
2022/09/11 06:03:13;;;;;;;5.18;4.78;;;13.10;99.90;;;;;;5035971;28;20080;-59
2022/09/11 06:05:39;;;;;;;5.43;5.00;;;13.10;99.90;;;;;;5037071;28;20104;-60
2022/09/11 06:08:06;;;;;;;5.80;5.32;;;13.10;99.90;;;;;;5035691;28;20560;-60
2022/09/11 06:10:32;;;;;;;6.60;6.00;;;13.10;99.90;;;;;;5037326;28;20049;-62
2022/09/11 06:12:59;;;;;;;6.47;5.88;;;13.20;99.90;;;;;;5035979;28;20052;-60
2022/09/11 06:15:25;;;;;;;6.40;5.10;;;13.20;99.90;;;;;;5034488;28;20049;-60
2022/09/11 06:17:52;;;;;;;6.60;6.00;;;13.20;99.90;;;;;;5018268;28;20175;-60
2022/09/11 06:20:18;;;;;;;5.63;5.13;;;13.20;99.90;;;;;;5052319;28;20081;-60
2022/09/11 06:22:44;;;;;;;6.13;5.60;;;13.20;99.90;;;;;;5032128;28;20064;-61
2022/09/11 06:25:10;;;;;;;6.72;6.13;;;13.30;99.90;;;;;;5032330;28;20429;-60
2022/09/11 06:27:36;;;;;;;6.40;5.80;;;13.30;99.90;;;;;;5034541;28;20044;-61
2022/09/11 06:30:02;;;;;;;7.50;6.78;;;13.30;99.90;;;;;;5035736;28;20052;-60
2022/09/11 06:32:28;;;;;;;8.25;7.38;;;13.40;99.90;;;;;;5048077;28;20049;-60
2022/09/11 06:34:54;;;;;;;9.82;8.15;;;13.40;99.90;;;;;;5033854;28;20630;-60
2022/09/11 06:37:20;;;;;;;9.27;8.38;;;13.50;99.90;;;;;;5035007;28;20513;-60
2022/09/11 06:39:45;;;;;;;9.02;8.13;;;13.50;99.90;;;;;;5010840;28;20049;-62
2022/09/11 06:42:11;;;;;;;10.88;8.07;;;13.60;99.90;;;;;;5008365;28;20080;-60
2022/09/11 06:44:37;;;;;;;10.07;9.18;;;13.60;99.90;;;;;;5016240;28;20055;-62
2022/09/11 06:47:04;;;;;;;11.18;10.07;;;13.70;99.90;;;;;;5034565;28;20515;-60
2022/09/11 06:49:30;;;;;;;13.98;11.48;;;13.70;99.90;;;;;;5019890;28;20178;-61
2022/09/11 06:51:58;;;;;;;11.57;10.38;;;13.80;99.90;;;;;;5035545;28;20052;-60
2022/09/11 06:54:24;;;;;;;13.77;11.13;;;13.90;99.90;;;;;;5031310;28;20852;-59
2022/09/11 06:56:50;;;;;;;12.90;11.60;;;14.00;99.90;;;;;;5039555;28;20055;-60
2022/09/11 06:59:16;;;;;;;16.80;13.45;;;14.10;99.90;;;;;;5021498;28;20053;-61
2022/09/11 07:01:42;;;;;;;14.10;11.90;;;14.10;99.90;;;;;;5025628;28;20554;-60
2022/09/11 07:04:09;;;;;;;17.45;12.55;;;14.20;99.90;;;;;;5036813;28;20147;-60
2022/09/11 07:06:37;;;;;;;16.30;14.60;;;14.30;99.90;;;;;;5039151;28;20053;-60
2022/09/11 07:09:03;;;;;;;15.65;13.80;;;14.40;99.90;;;;;;5035189;28;20048;-60
2022/09/11 07:11:34;;;;;;;20.20;16.27;;;14.50;99.90;;;;;;5018491;28;20407;-61
2022/09/11 07:14:04;;;;;;;21.42;16.50;;;14.60;99.90;;;;;;5013909;28;20049;-60
2022/09/11 07:16:31;;;;;;;21.67;16.83;;;14.70;99.90;;;;;;5036624;28;20611;-61
2022/09/11 07:18:57;;;;;;;21.95;16.83;;;14.80;99.90;;;;;;5039386;28;20502;-60
2022/09/11 07:21:25;;;;;;;20.55;17.58;;;14.90;99.90;;;;;;5056986;28;20045;-59
2022/09/11 07:23:53;;;;;;;23.85;18.55;;;15.00;99.90;;;;;;5018392;28;20084;-60
2022/09/11 07:26:20;;;;;;;20.38;17.45;;;15.10;99.90;;;;;;5040284;28;20067;-59
2022/09/11 07:28:50;;;;;;;20.73;16.80;;;15.20;99.90;;;;;;5033150;28;20491;-61
2022/09/11 07:31:22;;;;;;;23.63;18.65;;;15.30;99.90;;;;;;5029773;28;20176;-59
2022/09/11 07:33:49;;;;;;;20.87;16.87;;;15.40;99.90;;;;;;5035122;28;20071;-59
2022/09/11 07:36:18;;;;;;;20.48;16.98;;;15.60;99.90;;;;;;5031232;28;20300;-60
2022/09/11 07:38:45;;;;;;;25.10;18.80;;;15.70;99.90;;;;;;5031259;28;20498;-60
2022/09/11 07:41:16;;;;;;;23.95;18.75;;;15.80;99.90;;;;;;5018007;28;20049;-60
2022/09/11 07:43:45;;;;;;;20.23;17.23;;;15.90;99.90;;;;;;5031638;28;20091;-60
2022/09/11 07:46:12;;;;;;;21.67;17.00;;;16.10;99.90;;;;;;5037106;28;20054;-61
2022/09/11 07:48:39;;;;;;;21.83;17.38;;;16.30;99.90;;;;;;5035446;28;20079;-61
2022/09/11 07:51:09;;;;;;;19.30;17.30;;;16.40;99.90;;;;;;5029141;28;20137;-60
2022/09/11 07:53:37;;;;;;;21.38;17.45;;;16.60;99.90;;;;;;5026204;28;20041;-60
2022/09/11 07:56:09;;;;;;;17.63;15.73;;;16.70;99.90;;;;;;5032137;28;20049;-60
2022/09/11 07:58:37;;;;;;;17.67;14.73;;;16.90;99.90;;;;;;5031916;28;20120;-62
2022/09/11 08:01:08;;;;;;;16.65;13.13;;;17.00;99.90;;;;;;5048284;28;20511;-61
2022/09/11 08:03:34;;;;;;;16.15;12.77;;;17.20;99.90;;;;;;5036111;28;20051;-60
2022/09/11 08:06:09;;;;;;;18.05;12.95;;;17.30;99.90;;;;;;5030891;28;20049;-61
2022/09/11 08:08:36;;;;;;;15.55;14.05;;;17.50;99.90;;;;;;5029446;28;20054;-61
2022/09/11 08:11:05;;;;;;;14.40;12.52;;;17.60;99.90;;;;;;5019357;28;20168;-61
2022/09/11 08:13:32;;;;;;;11.23;10.10;;;17.80;99.90;;;;;;5036756;28;20116;-61
2022/09/11 08:15:58;;;;;;;13.50;10.48;;;17.90;99.90;;;;;;5039417;28;20471;-61
2022/09/11 08:18:24;;;;;;;13.45;11.00;;;18.00;99.90;;;;;;5033082;28;20064;-59
2022/09/11 08:20:50;;;;;;;13.05;9.82;;;18.10;99.90;;;;;;5032159;28;20934;-60
2022/09/11 08:23:16;;;;;;;14.10;9.35;;;18.30;99.90;;;;;;5024450;28;20119;-60
2022/09/11 08:25:42;;;;;;;10.48;8.10;;;18.40;99.90;;;;;;5031460;28;20126;-60
2022/09/11 08:28:09;;;;;;;10.65;8.88;;;18.50;99.90;;;;;;5037804;28;20044;-60
2022/09/11 08:30:38;;;;;;;11.52;9.20;;;18.70;99.90;;;;;;5039463;28;20491;-60
2022/09/11 08:33:05;;;;;;;11.63;7.85;;;18.70;99.90;;;;;;5034403;28;20041;-61
2022/09/11 08:35:32;;;;;;;6.68;5.35;;;18.80;99.90;;;;;;5038896;28;20053;-61
2022/09/11 08:37:59;;;;;;;6.82;4.45;;;18.90;99.90;;;;;;5029371;28;20509;-61
2022/09/11 08:40:26;;;;;;;6.57;4.47;;;19.10;99.90;;;;;;5033913;28;20049;-61
2022/09/11 08:42:56;;;;;;;8.52;3.80;;;19.30;99.90;;;;;;5031258;28;20040;-59
2022/09/11 08:45:28;;;;;;;4.88;3.25;;;19.50;99.90;;;;;;5033326;28;20055;-61
2022/09/11 08:47:56;;;;;;;8.77;3.27;;;19.70;99.90;;;;;;5024904;28;20120;-60
2022/09/11 08:50:41;;;;;;;3.55;2.80;;;19.90;99.90;;;;;;5030130;28;20041;-60
2022/09/11 08:53:14;;;;;;;6.75;3.28;;;20.10;99.90;;;;;;5033848;28;20045;-62
2022/09/11 08:55:51;;;;;;;7.10;4.13;;;20.30;99.90;;;;;;5034048;28;20087;-61
2022/09/11 08:58:29;;;;;;;5.97;3.05;;;20.60;99.90;;;;;;5023599;28;20044;-61
2022/09/11 09:01:27;;;;;;;7.18;2.97;;;20.80;99.90;;;;;;5039044;28;20511;-60
2022/09/11 09:04:01;;;;;;;4.38;2.63;;;21.00;99.90;;;;;;5030243;28;20521;-60
2022/09/11 09:06:49;;;;;;;5.28;2.20;;;21.10;99.90;;;;;;5039029;28;20127;-61
2022/09/11 09:09:29;;;;;;;3.95;2.05;;;21.10;99.90;;;;;;5038889;28;20052;-60
2022/09/11 09:12:01;;;;;;;5.18;2.13;;;21.10;99.90;;;;;;5036851;28;20604;-59
2022/09/11 09:14:50;;;;;;;5.47;2.03;;;21.00;99.90;;;;;;5034935;28;20075;-60
2022/09/11 09:17:25;;;;;;;3.97;1.60;;;20.90;99.90;;;;;;5036356;28;20115;-60
2022/09/11 09:19:56;;;;;;;5.15;1.40;;;20.90;99.90;;;;;;5033334;28;20056;-60
2022/09/11 09:22:50;;;;;;;2.30;1.40;;;20.90;99.90;;;;;;5027751;28;20048;-60
2022/09/11 09:25:21;;;;;;;2.00;0.90;;;20.90;99.90;;;;;;5052301;28;20507;-60
2022/09/11 09:28:01;;;;;;;2.67;1.10;;;20.90;99.90;;;;;;5035163;28;20130;-59
2022/09/11 09:30:33;;;;;;;1.48;1.10;;;21.00;99.90;;;;;;5037691;28;20190;-61
2022/09/11 09:33:34;;;;;;;2.08;0.90;;;21.00;99.90;;;;;;5032644;28;20518;-61
2022/09/11 09:36:38;;;;;;;0.90;0.80;;;21.00;99.90;;;;;;5031317;28;20079;-60
2022/09/11 09:39:13;;;;;;;2.25;1.20;;;20.80;99.90;;;;;;5033907;28;20593;-61
2022/09/11 09:41:57;;;;;;;10.10;2.70;;;20.80;99.90;;;;;;5030881;28;20059;-60
2022/09/11 09:44:42;;;;;;;12.90;3.75;;;20.70;99.90;;;;;;5030518;28;20134;-60
2022/09/11 09:47:13;;;;;;;6.30;3.47;;;20.60;99.90;;;;;;5027601;28;20048;-60
2022/09/11 09:49:40;;;;;;;5.50;4.10;;;20.50;99.90;;;;;;5024961;28;20107;-60
2022/09/11 09:52:34;;;;;;;6.82;4.18;;;20.40;99.90;;;;;;5032194;28;20160;-61
2022/09/11 09:55:12;;;;;;;7.90;3.85;;;20.30;99.90;;;;;;5028691;28;20059;-60
2022/09/11 09:57:42;;;;;;;7.68;3.80;;;20.20;99.90;;;;;;5029985;28;20146;-60
2022/09/11 10:00:08;;;;;;;6.90;4.40;;;20.10;99.90;;;;;;5023195;28;20045;-61
2022/09/11 10:02:48;;;;;;;5.90;3.70;;;20.00;99.90;;;;;;5015078;28;20499;-61
2022/09/11 10:05:19;;;;;;;5.60;3.50;;;20.00;99.90;;;;;;5013602;28;20114;-60
2022/09/11 10:07:55;;;;;;;4.97;3.50;;;20.00;99.90;;;;;;5025410;28;20049;-60
2022/09/11 10:10:25;;;;;;;6.25;3.38;;;20.00;99.90;;;;;;5032503;28;20479;-60
2022/09/11 10:12:53;;;;;;;4.93;3.20;;;20.00;99.90;;;;;;5030381;28;20076;-61
2022/09/11 10:15:21;;;;;;;6.07;3.00;;;20.00;99.90;;;;;;5020371;28;21083;-62
2022/09/11 10:17:48;;;;;;;6.07;2.78;;;20.10;99.90;;;;;;5029452;28;20398;-60
2022/09/11 10:20:14;;;;;;;5.80;2.97;;;20.10;99.90;;;;;;5029536;28;20676;-61
2022/09/11 10:22:40;;;;;;;5.13;2.70;;;20.10;99.90;;;;;;5022012;28;20060;-60
2022/09/11 10:25:15;;;;;;;5.32;2.55;;;20.10;99.90;;;;;;5010841;28;20070;-61
2022/09/11 10:27:53;;;;;;;3.25;2.33;;;20.10;99.90;;;;;;5028013;28;20057;-61
2022/09/11 10:30:40;;;;;;;5.68;3.00;;;20.10;99.90;;;;;;5029788;28;20109;-60
2022/09/11 10:33:25;;;;;;;4.10;3.22;;;20.20;99.90;;;;;;5014270;28;20049;-60
2022/09/11 10:35:57;;;;;;;6.88;3.10;;;20.30;99.90;;;;;;5037087;28;20072;-60
2022/09/11 10:38:32;;;;;;;3.75;3.17;;;20.50;99.90;;;;;;5033552;28;20444;-62
2022/09/11 10:41:06;;;;;;;5.65;3.20;;;20.60;99.90;;;;;;5039371;28;20049;-60
2022/09/11 10:43:42;;;;;;;5.65;3.20;;;20.70;99.90;;;;;;5034994;28;20903;-61
2022/09/11 10:46:38;;;;;;;3.33;2.28;;;20.80;99.90;;;;;;5036054;28;20088;-60
2022/09/11 10:49:03;;;;;;;4.45;2.55;;;21.00;99.90;;;;;;5034538;28;20065;-60
2022/09/11 10:51:36;;;;;;;6.53;2.85;;;21.30;99.90;;;;;;5037133;28;20399;-59
2022/09/11 10:54:33;;;;;;;5.30;2.60;;;21.60;99.90;;;;;;5035836;28;20049;-62
2022/09/11 10:57:32;;;;;;;7.63;2.78;;;21.60;99.90;;;;;;5035949;28;21135;-61
2022/09/11 11:00:11;;;;;;;4.32;2.00;;;21.60;99.90;;;;;;5037620;28;20073;-61
2022/09/11 11:02:41;;;;;;;2.75;1.80;;;21.50;99.90;;;;;;5014400;28;20049;-61
2022/09/11 11:05:38;;;;;;;3.78;1.45;;;21.40;99.90;;;;;;5032859;28;20562;-62
2022/09/11 11:08:10;;;;;;;2.88;1.50;;;21.40;99.90;;;;;;5037973;28;20041;-61
2022/09/11 11:11:19;;;;;;;5.10;1.30;;;21.30;99.90;;;;;;5039932;28;20047;-60
2022/09/11 11:14:19;;;;;;;2.60;1.10;;;21.20;99.90;;;;;;5029357;28;20045;-61
2022/09/11 11:16:47;;;;;;;2.80;1.20;;;21.20;99.90;;;;;;5009361;28;20513;-60
2022/09/11 11:19:19;;;;;;;3.15;1.30;;;21.10;99.90;;;;;;5036071;28;20068;-61
2022/09/11 11:22:00;;;;;;;4.27;1.60;;;21.10;99.90;;;;;;5030392;28;20452;-60
2022/09/11 11:24:31;;;;;;;2.67;1.25;;;21.10;99.90;;;;;;5032957;28;20053;-60
2022/09/11 11:27:16;;;;;;;1.95;1.30;;;21.10;99.90;;;;;;5039832;28;20052;-60
2022/09/11 11:30:16;;;;;;;4.70;1.45;;;21.10;99.90;;;;;;5034380;28;20051;-61
2022/09/11 11:32:57;;;;;;;3.05;1.77;;;21.10;99.90;;;;;;5009498;28;20946;-61
2022/09/11 11:35:27;;;;;;;2.35;1.50;;;21.10;99.90;;;;;;5028568;28;20045;-60
2022/09/11 11:38:06;;;;;;;2.90;1.50;;;21.10;99.90;;;;;;5034420;28;20044;-60
2022/09/11 11:40:41;;;;;;;4.28;1.70;;;21.10;99.90;;;;;;5032137;28;20520;-60
2022/09/11 11:43:10;;;;;;;2.95;1.40;;;21.20;99.90;;;;;;5033215;28;20126;-60
2022/09/11 11:45:48;;;;;;;3.00;1.45;;;21.30;99.90;;;;;;5022822;28;20052;-60
2022/09/11 11:48:39;;;;;;;2.72;1.50;;;21.30;99.90;;;;;;5036487;28;20271;-61
2022/09/11 11:51:09;;;;;;;2.65;1.65;;;21.40;99.90;;;;;;5035613;28;20563;-60
2022/09/11 11:53:59;;;;;;;2.47;1.33;;;21.60;99.90;;;;;;5036920;28;20049;-60
2022/09/11 11:56:40;;;;;;;2.85;1.40;;;22.10;99.90;;;;;;5038469;28;20033;-59
2022/09/11 11:59:40;;;;;;;3.92;1.55;;;22.50;99.90;;;;;;5036184;28;20533;-60
2022/09/11 12:02:09;;;;;;;3.33;1.48;;;22.90;99.90;;;;;;5030920;28;20073;-60
2022/09/11 12:04:43;;;;;;;3.72;1.60;;;23.20;98.90;;;;;;5040132;28;20131;-60
2022/09/11 12:07:20;;;;;;;3.03;1.15;;;23.50;98.10;;;;;;5016925;28;21444;-60
2022/09/11 12:09:48;;;;;;;5.03;1.30;;;23.80;98.40;;;;;;5027212;28;20056;-60
2022/09/11 12:12:16;;;;;;;3.92;1.30;;;24.10;97.50;;;;;;5034224;28;20048;-60
2022/09/11 12:15:16;;;;;;;4.70;2.13;;;24.30;97.00;;;;;;5040458;28;20033;-60
2022/09/11 12:17:42;;;;;;;3.47;1.40;;;24.60;96.50;;;;;;5014271;28;20399;-60
2022/09/11 12:20:08;;;;;;;4.07;1.55;;;25.00;96.10;;;;;;5032792;28;20041;-62
2022/09/11 12:22:39;;;;;;;4.25;1.30;;;25.30;95.20;;;;;;5038296;28;20107;-60
2022/09/11 12:25:27;;;;;;;3.78;1.90;;;25.60;94.80;;;;;;5032233;28;20052;-60
2022/09/11 12:28:20;;;;;;;3.97;2.10;;;25.80;94.50;;;;;;5031373;28;20832;-60
2022/09/11 12:31:03;;;;;;;4.38;2.17;;;25.80;93.90;;;;;;5020308;28;20045;-60
2022/09/11 12:33:46;;;;;;;5.90;2.25;;;25.80;93.80;;;;;;5029977;28;20069;-59
2022/09/11 12:36:28;;;;;;;3.00;2.10;;;25.80;93.70;;;;;;5022742;28;20507;-60
2022/09/11 12:39:00;;;;;;;5.78;2.60;;;25.80;92.20;;;;;;5024773;28;20041;-60
2022/09/11 12:41:35;;;;;;;4.50;2.20;;;25.60;92.30;;;;;;5026553;28;20094;-62
2022/09/11 12:44:24;;;;;;;5.03;2.40;;;25.30;92.50;;;;;;5037473;28;20053;-60
2022/09/11 12:46:52;;;;;;;3.17;2.17;;;25.00;92.90;;;;;;5025210;28;20221;-62
2022/09/11 12:49:20;;;;;;;6.25;2.70;;;24.70;93.00;;;;;;5036710;28;20092;-60
2022/09/11 12:51:59;;;;;;;5.70;2.30;;;24.50;93.50;;;;;;5026340;28;20049;-61
2022/09/11 12:54:38;;;;;;;6.70;2.38;;;24.40;93.90;;;;;;5027855;28;20051;-59
2022/09/11 12:57:18;;;;;;;3.75;2.38;;;24.40;94.20;;;;;;5032471;28;20881;-59
2022/09/11 12:59:52;;;;;;;3.42;2.42;;;24.60;93.60;;;;;;5016491;28;20560;-60
2022/09/11 13:02:34;;;;;;;3.53;2.53;;;24.80;93.10;;;;;;5034231;28;20053;-60
2022/09/11 13:05:02;;;;;;;3.65;2.22;;;25.10;93.20;;;;;;5034703;28;21184;-62
2022/09/11 13:07:41;;;;;;;3.80;2.15;;;25.40;93.10;;;;;;5025179;28;20041;-61